• Join FlightAware (Why Join?)
  • Login
  • US Flag 
01:00AM EDT


 

Airport Tracker/Info


-or-


 

Live Flight TrackerFlight Track Log ✈ UAL4530 ✈ 13-Jun-2013 ✈ KOMA - KIAH

Flight Track Log - Related Links

Times and Time Zones

All times are in EDT time to prevent confusion due to time zone crossing. See the UAL4530 flight status page for this flight to view local times or setup timezone preferences in your user account.

Time Position Orientation Groundspeed Altitude Reporting Facility
EDT Latitude Longitude Course Direction KTS MPH feet Rate Location/Type
12:35PM 41.2906 -95.8867 207° Southwest 187 215 1,400  Level Minneapolis Center
12:36PM 41.2300 -95.8911 183° South 220 253 3,000 1,500 Climbing Minneapolis Center
12:37PM 41.1800 -95.8944 183° South 247 284 4,300 1,740 Climbing Minneapolis Center
12:38PM 41.0596 -95.7802 203° Southwest  Level FlightAware Approximate
12:38PM 41.1025 -95.9028 185° South 263 303 6,400  Level Minneapolis Center
12:39PM 40.9712 -95.8307 203° Southwest  Level FlightAware Approximate
12:39PM 41.0044 -95.9100 183° South 279 321 8,300  Level Minneapolis Center
12:40PM 40.8851 -95.8878 207° Southwest  Level FlightAware Approximate
12:40PM 40.9153 -95.9133 182° South 299 344 10,100  Level Minneapolis Center
12:41PM 40.8233 -95.9128 180° South 315 362 10,900 720 Climbing Minneapolis Center
12:42PM 40.7300 -95.9531 198° South 345 397 11,700 960 Climbing Minneapolis Center
12:43PM 40.6375 -96.0069 204° Southwest 358 412 12,900 960 Climbing Minneapolis Center
12:44PM 40.5417 -96.0611 203° Southwest 365 420 13,700 960 Climbing Minneapolis Center
12:45PM 40.4228 -96.1294 204° Southwest 378 435 15,000 1,080 Climbing Minneapolis Center
12:46PM 40.3225 -96.1853 203° Southwest 384 442 16,000 960 Climbing Minneapolis Center
12:47PM 40.2225 -96.2428 204° Southwest 390 449 17,000 780 Climbing Minneapolis Center
12:48PM 40.1239 -96.2997 204° Southwest 388 447 17,700 840 Climbing Minneapolis Center
12:49PM 40.0247 -96.3519 202° Southwest 388 447 18,700 1,020 Climbing Kansas City Center
12:50PM 39.9286 -96.4064 203° Southwest 391 450 19,700 960 Climbing Kansas City Center
12:51PM 39.8219 -96.4656 203° Southwest 396 456 20,700 960 Climbing Kansas City Center
12:52PM 39.7256 -96.5200 203° Southwest 398 458 21,700 960 Climbing Kansas City Center
12:53PM 39.6111 -96.5825 203° Southwest 400 460 22,800 960 Climbing Kansas City Center
12:54PM 39.5131 -96.6369 203° Southwest 400 460 23,700 960 Climbing Kansas City Center
12:55PM 39.3972 -96.7006 203° Southwest 403 464 24,900 960 Climbing Kansas City Center
12:56PM 39.2981 -96.7542 203° Southwest 403 464 25,800 960 Climbing Kansas City Center
12:57PM 39.1833 -96.8158 203° Southwest 401 461 26,900 960 Climbing Kansas City Center
12:58PM 39.0853 -96.8689 203° Southwest 401 461 27,800 960 Climbing Kansas City Center
12:59PM 38.9700 -96.9342 204° Southwest 398 458 29,000 1,080 Climbing Kansas City Center
01:00PM 38.8572 -96.9497 186° South 409 471 30,000 960 Climbing Kansas City Center
01:01PM 38.7428 -96.9489 180° South 411 473 31,000 960 Climbing Kansas City Center
01:02PM 38.6281 -96.9478 180° South 412 474 32,000 960 Climbing Kansas City Center
01:03PM 38.5117 -96.9469 180° South 415 478 33,000 960 Climbing Kansas City Center
01:04PM 38.3956 -96.9453 179° South 416 479 34,000 480 Climbing Kansas City Center
01:05PM 38.2772 -96.9444 180° South 422 486 34,000  Level Kansas City Center
01:07PM 38.1250 -96.9439 180° South 451 519 34,000  Level Kansas City Center
01:08PM 37.9972 -96.9428 180° South 455 524 34,000 300 Level Kansas City Center
01:09PM 37.8711 -96.9417 180° South 452 520 34,700 960 Climbing Kansas City Center
01:10PM 37.7525 -96.9403 179° South 428 493 36,000 600 Climbing Kansas City Center
01:11PM 37.6311 -96.9389 179° South 432 497 36,000 480 Level Kansas City Center
01:12PM 37.5083 -96.9383 180° South 437 503 37,000 480 Climbing Kansas City Center
01:13PM 37.3869 -96.9369 179° South 435 501 37,000  Level Kansas City Center
01:14PM 37.2372 -96.9358 180° South 446 513 37,000  Level Kansas City Center
01:15PM 37.1117 -96.9350 180° South 449 517 37,000  Level Kansas City Center
01:16PM 36.9869 -96.9342 180° South 447 514 37,000  Level Kansas City Center
01:17PM 36.8639 -96.9333 180° South 444 511 37,000  Level Kansas City Center
01:18PM 36.7328 -96.9283 178° South 441 507 37,000  Level Kansas City Center
01:19PM 36.6122 -96.9283 180° South 437 503 37,000  Level Kansas City Center
01:20PM 36.4906 -96.9267 179° South 436 502 37,000  Level Kansas City Center
01:21PM 36.3692 -96.9267 180° South 436 502 37,000  Level Kansas City Center
01:22PM 36.2486 -96.9294 181° South 433 498 37,000  Level Kansas City Center
01:23PM 36.1042 -96.9267 179° South 432 497 37,000  Level Kansas City Center
01:24PM 35.9833 -96.9261 180° South 433 498 37,000  Level Kansas City Center
01:25PM 35.8625 -96.9247 179° South 432 497 37,000  Level Kansas City Center
01:26PM 35.7428 -96.9239 180° South 430 495 37,000  Level Kansas City Center
01:27PM 35.6217 -96.9225 179° South 432 497 37,000  Level Kansas City Center
01:28PM 35.5242 -96.9214 179° South 446 513 37,000  Level Fort Worth Center
01:29PM 35.3886 -96.9194 179° South 441 507 37,000  Level Fort Worth Center
01:30PM 35.2656 -96.9178 179° South 441 507 37,000  Level Fort Worth Center
01:31PM 35.1425 -96.9211 181° South 441 507 37,000  Level Fort Worth Center
01:32PM 35.0214 -96.9192 179° South 441 507 37,000  Level Fort Worth Center
01:33PM 34.9006 -96.9197 180° South 441 507 37,000  Level Fort Worth Center
01:34PM 34.7794 -96.9181 179° South 436 502 37,000  Level Fort Worth Center
01:35PM 34.6606 -96.9186 180° South 436 502 37,000  Level Fort Worth Center
01:36PM 34.5417 -96.9169 179° South 431 496 37,000  Level Fort Worth Center
01:37PM 34.4247 -96.9150 179° South 426 490 37,000  Level Fort Worth Center
01:38PM 34.3081 -96.9156 180° South 426 490 37,000  Level Fort Worth Center
01:39PM 34.1911 -96.9139 179° South 421 484 37,000  Level Fort Worth Center
01:40PM 34.0700 -96.9169 181° South 421 484 37,000  Level Fort Worth Center
01:41PM 33.9553 -96.9128 178° South 421 484 37,000  Level Fort Worth Center
01:42PM 33.8342 -96.9133 180° South 421 484 37,000  Level Fort Worth Center
01:43PM 33.7194 -96.9117 179° South 421 484 37,000  Level Fort Worth Center
01:44PM 33.5964 -96.9122 180° South 421 484 37,000 -120 Level Fort Worth Center
01:45PM 33.4753 -96.9081 178° South 428 493 36,800 -660 Descending Fort Worth Center
01:46PM 33.3542 -96.9111 181° South 439 505 35,700 -900 Descending Fort Worth Center
01:47PM 33.2436 -96.9067 178° South 439 505 35,000 -360 Descending Fort Worth Center
01:48PM 33.1100 -96.9050 179° South 439 505 35,000  Level Fort Worth Center
01:49PM 33.0036 -96.9056 180° South 439 505 35,000  Level Fort Worth Center
01:50PM 32.8719 -96.8964 177° South 434 499 35,000  Level Fort Worth Center
01:51PM 32.7781 -96.8722 168° South 434 499 35,000  Level Fort Worth Center
01:52PM 32.6378 -96.8361 168° South 439 505 35,000  Level Fort Worth Center
01:53PM 32.5314 -96.8047 166° South 434 499 35,000  Level Fort Worth Center
01:54PM 32.4039 -96.7686 167° South 428 493 35,000  Level Fort Worth Center
01:55PM 32.2972 -96.7375 166° South 433 498 35,000  Level Fort Worth Center
01:56PM 32.1675 -96.6992 166° South 433 498 35,000  Level Fort Worth Center
01:57PM 32.0544 -96.6683 167° South 431 496 35,000  Level Fort Worth Center
01:58PM 31.9353 -96.6300 165° South 436 502 35,000  Level Fort Worth Center
01:59PM 31.8183 -96.5992 167° South 436 502 35,000 -120 Level Fort Worth Center
01:59PM 31.7769 -96.5872 166° South 430 495 34,900 -1,260 Descending Houston Center
02:00PM 31.6561 -96.5531 166° South 438 504 33,300 -1,680 Descending Houston Center
02:01PM 31.5367 -96.5181 166° South 438 504 31,500 -1,800 Descending Houston Center
02:02PM 31.4239 -96.4533 154° Southeast 441 507 29,600 -1,680 Descending Houston Center
02:03PM 31.3111 -96.3833 152° Southeast 448 516 28,100 -1,440 Descending Houston Center
02:04PM 31.1958 -96.3133 153° Southeast 458 527 26,700 -1,500 Descending Houston Center
02:05PM 31.0842 -96.2461 153° Southeast 447 514 25,100 -1,860 Descending Houston Center
02:07PM 30.9761 -96.1778 152° Southeast 438 504 22,900 -2,400 Descending Houston Center
02:08PM 30.8519 -96.1044 153° Southeast 424 488 20,200 -2,340 Descending Houston Center
02:09PM 30.7550 -96.0447 152° Southeast 397 457 18,100 -2,100 Descending Houston Center
02:10PM 30.6586 -95.9861 152° Southeast 388 447 15,900 -2,100 Descending Houston Center
02:10PM 30.6083 -95.9567 153° Southeast 376 433 14,800 -2,040 Descending Houston Center
02:11PM 30.5675 -95.9308 151° Southeast 373 429 13,800 -1,920 Descending Houston Center
02:12PM 30.4753 -95.8750 152° Southeast 371 427 12,100 -1,020 Descending Houston Center
02:13PM 30.3886 -95.7978 142° Southeast 372 428 11,900 -780 Descending Houston Center
02:14PM 30.3125 -95.7172 138° Southeast 374 430 10,600 -960 Descending Houston Center
02:15PM 30.2358 -95.6344 137° Southeast 363 418 10,000 -300 Descending Houston Center
02:16PM 30.1617 -95.5586 139° Southeast 330 380 10,000 -1,140 Level Houston Center
02:17PM 30.0986 -95.4911 137° Southeast 286 329 7,500 -1,800 Descending Houston Center
02:18PM 30.1047 -95.4031 85° East 274 315 6,000 -840 Descending Houston Center
02:19PM 30.1069 -95.3236 88° East 257 296 6,000 -1,020 Level Houston Center
02:20PM 30.1064 -95.2489 90° East 247 284 4,300 -1,680 Descending Houston Center
02:20PM 30.1064 -95.2397 90° East 256 295 4,000 -1,620 Descending Houston Center
02:21PM 30.0883 -95.1689 106° East 227 261 2,500 -1,860 Descending Houston Center